sensor_id;sensor_type;location;lat;lon;timestamp;P1;durP1;ratioP1;P2;durP2;ratioP2
56413;SDS011;42318;48.452;19.526;2022-07-22T00:00:54;3.83;;;1.90;;
56413;SDS011;42318;48.452;19.526;2022-07-22T00:08:25;3.57;;;2.20;;
56413;SDS011;42318;48.452;19.526;2022-07-22T00:15:56;3.73;;;2.37;;
56413;SDS011;42318;48.452;19.526;2022-07-22T00:23:27;3.15;;;1.83;;
56413;SDS011;42318;48.452;19.526;2022-07-22T00:30:58;2.50;;;1.90;;
56413;SDS011;42318;48.452;19.526;2022-07-22T00:38:29;5.27;;;1.93;;
56413;SDS011;42318;48.452;19.526;2022-07-22T00:45:59;3.83;;;2.23;;
56413;SDS011;42318;48.452;19.526;2022-07-22T00:53:30;3.73;;;1.80;;
56413;SDS011;42318;48.452;19.526;2022-07-22T01:01:01;3.67;;;2.07;;
56413;SDS011;42318;48.452;19.526;2022-07-22T01:08:32;3.23;;;2.33;;
56413;SDS011;42318;48.452;19.526;2022-07-22T01:16:04;5.63;;;2.13;;
56413;SDS011;42318;48.452;19.526;2022-07-22T01:23:35;3.28;;;2.05;;
56413;SDS011;42318;48.452;19.526;2022-07-22T01:31:06;5.07;;;2.13;;
56413;SDS011;42318;48.452;19.526;2022-07-22T01:38:37;3.90;;;2.53;;
56413;SDS011;42318;48.452;19.526;2022-07-22T01:46:08;5.20;;;2.33;;
56413;SDS011;42318;48.452;19.526;2022-07-22T01:53:39;4.13;;;1.87;;
56413;SDS011;42318;48.452;19.526;2022-07-22T02:01:10;4.20;;;2.00;;
56413;SDS011;42318;48.452;19.526;2022-07-22T02:08:41;4.07;;;2.17;;
56413;SDS011;42318;48.452;19.526;2022-07-22T02:16:12;4.87;;;2.13;;
56413;SDS011;42318;48.452;19.526;2022-07-22T02:23:42;5.00;;;2.37;;
56413;SDS011;42318;48.452;19.526;2022-07-22T02:31:13;5.47;;;2.30;;
56413;SDS011;42318;48.452;19.526;2022-07-22T02:38:44;4.90;;;2.07;;
56413;SDS011;42318;48.452;19.526;2022-07-22T02:46:15;6.73;;;2.37;;
56413;SDS011;42318;48.452;19.526;2022-07-22T02:53:46;4.47;;;2.13;;
56413;SDS011;42318;48.452;19.526;2022-07-22T03:01:16;4.23;;;1.90;;
56413;SDS011;42318;48.452;19.526;2022-07-22T03:08:48;4.25;;;1.83;;
56413;SDS011;42318;48.452;19.526;2022-07-22T03:16:19;3.20;;;2.10;;
56413;SDS011;42318;48.452;19.526;2022-07-22T03:23:49;3.23;;;1.80;;
56413;SDS011;42318;48.452;19.526;2022-07-22T03:31:23;2.65;;;1.80;;
56413;SDS011;42318;48.452;19.526;2022-07-22T03:38:55;2.30;;;1.90;;
56413;SDS011;42318;48.452;19.526;2022-07-22T03:46:26;2.70;;;1.77;;
56413;SDS011;42318;48.452;19.526;2022-07-22T03:53:58;4.00;;;2.50;;
56413;SDS011;42318;48.452;19.526;2022-07-22T04:01:28;3.77;;;1.90;;
56413;SDS011;42318;48.452;19.526;2022-07-22T04:08:59;4.20;;;2.10;;
56413;SDS011;42318;48.452;19.526;2022-07-22T04:16:30;2.03;;;1.80;;
56413;SDS011;42318;48.452;19.526;2022-07-22T04:24:01;2.97;;;2.03;;
56413;SDS011;42318;48.452;19.526;2022-07-22T04:38:42;3.13;;;1.80;;
56413;SDS011;42318;48.452;19.526;2022-07-22T04:46:13;4.10;;;1.80;;
56413;SDS011;42318;48.452;19.526;2022-07-22T04:53:44;2.60;;;1.50;;
56413;SDS011;42318;48.452;19.526;2022-07-22T05:01:14;3.70;;;2.03;;
56413;SDS011;42318;48.452;19.526;2022-07-22T05:08:45;3.87;;;1.90;;
56413;SDS011;42318;48.452;19.526;2022-07-22T05:16:16;4.87;;;2.00;;
56413;SDS011;42318;48.452;19.526;2022-07-22T05:23:46;3.30;;;1.83;;
56413;SDS011;42318;48.452;19.526;2022-07-22T05:31:17;2.33;;;1.67;;
56413;SDS011;42318;48.452;19.526;2022-07-22T05:38:48;3.03;;;2.03;;
56413;SDS011;42318;48.452;19.526;2022-07-22T05:46:19;3.60;;;1.63;;
56413;SDS011;42318;48.452;19.526;2022-07-22T05:53:50;2.70;;;1.80;;
56413;SDS011;42318;48.452;19.526;2022-07-22T06:01:20;2.43;;;2.23;;
56413;SDS011;42318;48.452;19.526;2022-07-22T06:08:51;2.30;;;1.73;;
56413;SDS011;42318;48.452;19.526;2022-07-22T06:16:22;2.93;;;1.90;;
56413;SDS011;42318;48.452;19.526;2022-07-22T06:23:53;2.53;;;1.70;;
56413;SDS011;42318;48.452;19.526;2022-07-22T06:31:23;3.17;;;1.67;;
56413;SDS011;42318;48.452;19.526;2022-07-22T06:38:54;3.03;;;1.97;;
56413;SDS011;42318;48.452;19.526;2022-07-22T06:46:25;2.60;;;1.70;;
56413;SDS011;42318;48.452;19.526;2022-07-22T06:53:55;3.87;;;1.57;;
56413;SDS011;42318;48.452;19.526;2022-07-22T07:01:26;2.17;;;1.50;;
56413;SDS011;42318;48.452;19.526;2022-07-22T07:08:56;2.30;;;1.67;;
56413;SDS011;42318;48.452;19.526;2022-07-22T07:16:28;1.70;;;1.50;;
56413;SDS011;42318;48.452;19.526;2022-07-22T07:23:59;2.20;;;1.63;;
56413;SDS011;42318;48.452;19.526;2022-07-22T07:31:30;2.43;;;1.73;;
56413;SDS011;42318;48.452;19.526;2022-07-22T07:39:01;1.87;;;1.43;;
56413;SDS011;42318;48.452;19.526;2022-07-22T07:46:32;2.40;;;1.70;;
56413;SDS011;42318;48.452;19.526;2022-07-22T07:54:02;2.43;;;1.60;;
56413;SDS011;42318;48.452;19.526;2022-07-22T08:01:33;2.27;;;1.70;;
56413;SDS011;42318;48.452;19.526;2022-07-22T08:09:04;1.93;;;1.50;;
56413;SDS011;42318;48.452;19.526;2022-07-22T08:16:35;2.57;;;1.20;;
56413;SDS011;42318;48.452;19.526;2022-07-22T08:24:05;2.30;;;1.97;;
56413;SDS011;42318;48.452;19.526;2022-07-22T08:31:37;1.43;;;1.23;;
56413;SDS011;42318;48.452;19.526;2022-07-22T08:39:08;2.15;;;1.40;;
56413;SDS011;42318;48.452;19.526;2022-07-22T08:46:39;3.67;;;1.37;;
56413;SDS011;42318;48.452;19.526;2022-07-22T08:54:10;2.00;;;1.50;;
56413;SDS011;42318;48.452;19.526;2022-07-22T09:09:36;2.25;;;1.70;;
56413;SDS011;42318;48.452;19.526;2022-07-22T09:17:06;2.13;;;1.27;;
56413;SDS011;42318;48.452;19.526;2022-07-22T09:24:38;2.10;;;1.55;;
56413;SDS011;42318;48.452;19.526;2022-07-22T09:32:08;1.67;;;1.30;;
56413;SDS011;42318;48.452;19.526;2022-07-22T09:39:39;2.30;;;1.20;;
56413;SDS011;42318;48.452;19.526;2022-07-22T09:47:31;1.80;;;1.30;;
56413;SDS011;42318;48.452;19.526;2022-07-22T09:55:00;1.50;;;1.15;;
56413;SDS011;42318;48.452;19.526;2022-07-22T10:02:31;2.10;;;1.50;;
56413;SDS011;42318;48.452;19.526;2022-07-22T10:10:03;1.88;;;1.38;;
56413;SDS011;42318;48.452;19.526;2022-07-22T10:17:35;1.60;;;1.05;;
56413;SDS011;42318;48.452;19.526;2022-07-22T10:25:09;1.70;;;1.42;;
56413;SDS011;42318;48.452;19.526;2022-07-22T10:32:41;2.10;;;1.30;;
56413;SDS011;42318;48.452;19.526;2022-07-22T10:47:51;1.25;;;1.10;;
56413;SDS011;42318;48.452;19.526;2022-07-22T10:55:23;1.40;;;1.27;;
56413;SDS011;42318;48.452;19.526;2022-07-22T11:02:53;1.93;;;1.30;;
56413;SDS011;42318;48.452;19.526;2022-07-22T11:10:24;1.20;;;1.10;;
56413;SDS011;42318;48.452;19.526;2022-07-22T11:17:55;1.53;;;1.20;;
56413;SDS011;42318;48.452;19.526;2022-07-22T11:32:57;1.38;;;1.08;;
56413;SDS011;42318;48.452;19.526;2022-07-22T11:40:32;1.67;;;1.33;;
56413;SDS011;42318;48.452;19.526;2022-07-22T11:48:10;1.27;;;1.17;;
56413;SDS011;42318;48.452;19.526;2022-07-22T11:55:40;1.20;;;1.08;;
56413;SDS011;42318;48.452;19.526;2022-07-22T12:03:11;2.27;;;1.40;;
56413;SDS011;42318;48.452;19.526;2022-07-22T12:10:42;1.20;;;1.00;;
56413;SDS011;42318;48.452;19.526;2022-07-22T12:18:14;2.08;;;1.35;;
56413;SDS011;42318;48.452;19.526;2022-07-22T12:25:59;1.73;;;1.50;;
56413;SDS011;42318;48.452;19.526;2022-07-22T12:33:32;1.48;;;1.33;;
56413;SDS011;42318;48.452;19.526;2022-07-22T12:41:22;2.17;;;1.37;;
56413;SDS011;42318;48.452;19.526;2022-07-22T12:48:56;1.70;;;1.33;;
56413;SDS011;42318;48.452;19.526;2022-07-22T12:56:30;1.20;;;1.10;;
56413;SDS011;42318;48.452;19.526;2022-07-22T13:04:01;1.57;;;1.30;;
56413;SDS011;42318;48.452;19.526;2022-07-22T13:11:34;1.95;;;1.50;;
56413;SDS011;42318;48.452;19.526;2022-07-22T13:19:09;1.48;;;1.00;;
56413;SDS011;42318;48.452;19.526;2022-07-22T13:26:40;2.40;;;1.10;;
56413;SDS011;42318;48.452;19.526;2022-07-22T13:34:11;1.57;;;1.07;;
56413;SDS011;42318;48.452;19.526;2022-07-22T13:41:41;2.00;;;1.33;;
56413;SDS011;42318;48.452;19.526;2022-07-22T13:49:12;2.40;;;1.87;;
56413;SDS011;42318;48.452;19.526;2022-07-22T13:56:43;1.50;;;1.17;;
56413;SDS011;42318;48.452;19.526;2022-07-22T14:04:17;1.90;;;1.40;;
56413;SDS011;42318;48.452;19.526;2022-07-22T14:11:48;1.70;;;1.40;;
56413;SDS011;42318;48.452;19.526;2022-07-22T14:19:19;1.60;;;1.40;;
56413;SDS011;42318;48.452;19.526;2022-07-22T14:26:49;1.40;;;1.30;;
56413;SDS011;42318;48.452;19.526;2022-07-22T14:34:20;1.50;;;1.20;;
56413;SDS011;42318;48.452;19.526;2022-07-22T14:41:51;3.43;;;1.53;;
56413;SDS011;42318;48.452;19.526;2022-07-22T14:49:22;3.23;;;1.60;;
56413;SDS011;42318;48.452;19.526;2022-07-22T14:56:52;1.63;;;1.50;;
56413;SDS011;42318;48.452;19.526;2022-07-22T15:04:23;1.67;;;1.37;;
56413;SDS011;42318;48.452;19.526;2022-07-22T15:11:54;2.00;;;1.47;;
56413;SDS011;42318;48.452;19.526;2022-07-22T15:19:24;2.13;;;1.50;;
56413;SDS011;42318;48.452;19.526;2022-07-22T15:26:55;1.80;;;1.57;;
56413;SDS011;42318;48.452;19.526;2022-07-22T15:34:31;2.58;;;1.50;;
56413;SDS011;42318;48.452;19.526;2022-07-22T15:42:03;1.90;;;1.42;;
56413;SDS011;42318;48.452;19.526;2022-07-22T15:49:34;1.95;;;1.33;;
56413;SDS011;42318;48.452;19.526;2022-07-22T15:57:05;1.47;;;1.13;;
56413;SDS011;42318;48.452;19.526;2022-07-22T16:04:54;1.70;;;1.40;;
56413;SDS011;42318;48.452;19.526;2022-07-22T16:12:24;1.67;;;1.47;;
56413;SDS011;42318;48.452;19.526;2022-07-22T16:19:55;1.60;;;1.50;;
56413;SDS011;42318;48.452;19.526;2022-07-22T16:27:26;1.30;;;1.20;;
56413;SDS011;42318;48.452;19.526;2022-07-22T16:34:56;2.50;;;1.40;;
56413;SDS011;42318;48.452;19.526;2022-07-22T16:42:27;2.20;;;1.67;;
56413;SDS011;42318;48.452;19.526;2022-07-22T16:49:58;1.43;;;1.33;;
56413;SDS011;42318;48.452;19.526;2022-07-22T16:57:28;1.40;;;1.30;;
56413;SDS011;42318;48.452;19.526;2022-07-22T17:04:59;1.77;;;1.63;;
56413;SDS011;42318;48.452;19.526;2022-07-22T17:12:30;2.17;;;1.50;;
56413;SDS011;42318;48.452;19.526;2022-07-22T17:20:01;2.15;;;1.40;;
56413;SDS011;42318;48.452;19.526;2022-07-22T17:27:33;1.92;;;1.52;;
56413;SDS011;42318;48.452;19.526;2022-07-22T17:35:04;1.93;;;1.67;;
56413;SDS011;42318;48.452;19.526;2022-07-22T17:42:35;1.42;;;1.08;;
56413;SDS011;42318;48.452;19.526;2022-07-22T17:50:06;1.80;;;1.37;;
56413;SDS011;42318;48.452;19.526;2022-07-22T17:57:36;1.60;;;1.50;;
56413;SDS011;42318;48.452;19.526;2022-07-22T18:05:07;1.40;;;1.27;;
56413;SDS011;42318;48.452;19.526;2022-07-22T18:12:41;2.80;;;1.40;;
56413;SDS011;42318;48.452;19.526;2022-07-22T18:20:12;1.73;;;1.50;;
56413;SDS011;42318;48.452;19.526;2022-07-22T18:27:43;1.87;;;1.67;;
56413;SDS011;42318;48.452;19.526;2022-07-22T18:35:14;1.50;;;1.40;;
56413;SDS011;42318;48.452;19.526;2022-07-22T18:42:44;2.00;;;1.60;;
56413;SDS011;42318;48.452;19.526;2022-07-22T18:50:15;1.77;;;1.60;;
56413;SDS011;42318;48.452;19.526;2022-07-22T18:57:46;2.00;;;1.80;;
56413;SDS011;42318;48.452;19.526;2022-07-22T19:05:16;3.77;;;1.70;;
56413;SDS011;42318;48.452;19.526;2022-07-22T19:12:47;3.30;;;1.80;;
56413;SDS011;42318;48.452;19.526;2022-07-22T19:20:18;2.47;;;2.03;;
56413;SDS011;42318;48.452;19.526;2022-07-22T19:27:50;2.78;;;2.05;;
56413;SDS011;42318;48.452;19.526;2022-07-22T19:35:21;3.47;;;2.27;;
56413;SDS011;42318;48.452;19.526;2022-07-22T19:42:51;4.10;;;3.07;;
56413;SDS011;42318;48.452;19.526;2022-07-22T19:50:22;3.90;;;2.27;;
56413;SDS011;42318;48.452;19.526;2022-07-22T19:57:53;2.60;;;2.17;;
56413;SDS011;42318;48.452;19.526;2022-07-22T20:05:24;5.23;;;3.00;;
56413;SDS011;42318;48.452;19.526;2022-07-22T20:12:54;3.47;;;2.77;;
56413;SDS011;42318;48.452;19.526;2022-07-22T20:20:26;6.95;;;3.55;;
56413;SDS011;42318;48.452;19.526;2022-07-22T20:27:57;3.70;;;3.07;;
56413;SDS011;42318;48.452;19.526;2022-07-22T20:35:27;6.37;;;3.73;;
56413;SDS011;42318;48.452;19.526;2022-07-22T20:42:58;6.97;;;4.10;;
56413;SDS011;42318;48.452;19.526;2022-07-22T20:50:29;8.63;;;3.80;;
56413;SDS011;42318;48.452;19.526;2022-07-22T20:57:59;7.70;;;3.63;;
56413;SDS011;42318;48.452;19.526;2022-07-22T21:05:30;5.97;;;3.53;;
56413;SDS011;42318;48.452;19.526;2022-07-22T21:13:01;5.90;;;3.63;;
56413;SDS011;42318;48.452;19.526;2022-07-22T21:20:32;4.37;;;3.67;;
56413;SDS011;42318;48.452;19.526;2022-07-22T21:28:03;5.70;;;3.60;;
56413;SDS011;42318;48.452;19.526;2022-07-22T21:35:36;5.35;;;4.13;;
56413;SDS011;42318;48.452;19.526;2022-07-22T21:43:07;8.85;;;3.70;;
56413;SDS011;42318;48.452;19.526;2022-07-22T21:50:38;7.93;;;4.10;;
56413;SDS011;42318;48.452;19.526;2022-07-22T21:58:09;6.88;;;4.13;;
56413;SDS011;42318;48.452;19.526;2022-07-22T22:05:40;5.93;;;3.50;;
56413;SDS011;42318;48.452;19.526;2022-07-22T22:13:11;6.17;;;3.67;;
56413;SDS011;42318;48.452;19.526;2022-07-22T22:20:42;5.27;;;3.63;;
56413;SDS011;42318;48.452;19.526;2022-07-22T22:28:12;8.10;;;3.23;;
56413;SDS011;42318;48.452;19.526;2022-07-22T22:35:43;6.57;;;4.13;;
56413;SDS011;42318;48.452;19.526;2022-07-22T22:43:14;6.37;;;3.73;;
56413;SDS011;42318;48.452;19.526;2022-07-22T22:50:44;4.80;;;3.47;;
56413;SDS011;42318;48.452;19.526;2022-07-22T22:58:15;5.40;;;3.70;;
56413;SDS011;42318;48.452;19.526;2022-07-22T23:05:46;10.70;;;3.93;;
56413;SDS011;42318;48.452;19.526;2022-07-22T23:13:17;7.07;;;3.80;;
56413;SDS011;42318;48.452;19.526;2022-07-22T23:20:48;5.57;;;3.60;;
56413;SDS011;42318;48.452;19.526;2022-07-22T23:28:19;5.20;;;3.40;;
56413;SDS011;42318;48.452;19.526;2022-07-22T23:35:50;4.93;;;3.33;;
56413;SDS011;42318;48.452;19.526;2022-07-22T23:43:21;8.43;;;3.47;;
56413;SDS011;42318;48.452;19.526;2022-07-22T23:50:51;5.93;;;3.43;;
56413;SDS011;42318;48.452;19.526;2022-07-22T23:58:22;4.70;;;3.30;;
